sensor_id;sensor_type;location;lat;lon;timestamp;P1;durP1;ratioP1;P2;durP2;ratioP2
58665;SDS011;44436;52.872;6.520;2022-10-14T00:02:20;32.80;;;26.63;;
58665;SDS011;44436;52.872;6.520;2022-10-14T00:04:45;31.35;;;26.33;;
58665;SDS011;44436;52.872;6.520;2022-10-14T00:07:11;28.75;;;25.52;;
58665;SDS011;44436;52.872;6.520;2022-10-14T00:09:37;31.27;;;26.13;;
58665;SDS011;44436;52.872;6.520;2022-10-14T00:12:03;27.10;;;23.65;;
58665;SDS011;44436;52.872;6.520;2022-10-14T00:14:29;27.23;;;24.42;;
58665;SDS011;44436;52.872;6.520;2022-10-14T00:16:55;25.52;;;22.33;;
58665;SDS011;44436;52.872;6.520;2022-10-14T00:19:21;23.20;;;20.75;;
58665;SDS011;44436;52.872;6.520;2022-10-14T00:21:47;23.85;;;21.35;;
58665;SDS011;44436;52.872;6.520;2022-10-14T00:24:12;28.38;;;23.30;;
58665;SDS011;44436;52.872;6.520;2022-10-14T00:26:40;26.25;;;23.05;;
58665;SDS011;44436;52.872;6.520;2022-10-14T00:29:07;26.35;;;23.50;;
58665;SDS011;44436;52.872;6.520;2022-10-14T00:31:35;27.25;;;23.63;;
58665;SDS011;44436;52.872;6.520;2022-10-14T00:34:01;28.20;;;22.90;;
58665;SDS011;44436;52.872;6.520;2022-10-14T00:36:27;31.38;;;24.85;;
58665;SDS011;44436;52.872;6.520;2022-10-14T00:38:53;57.33;;;25.42;;
58665;SDS011;44436;52.872;6.520;2022-10-14T00:43:50;284.23;;;28.13;;
58665;SDS011;44436;52.872;6.520;2022-10-14T00:46:19;152.93;;;24.33;;
58665;SDS011;44436;52.872;6.520;2022-10-14T00:48:45;30.50;;;19.60;;
58665;SDS011;44436;52.872;6.520;2022-10-14T00:51:10;198.75;;;21.40;;
58665;SDS011;44436;52.872;6.520;2022-10-14T00:53:37;191.43;;;21.27;;
58665;SDS011;44436;52.872;6.520;2022-10-14T00:56:05;69.93;;;18.20;;
58665;SDS011;44436;52.872;6.520;2022-10-14T00:58:33;207.75;;;21.38;;
58665;SDS011;44436;52.872;6.520;2022-10-14T01:00:59;183.18;;;21.88;;
58665;SDS011;44436;52.872;6.520;2022-10-14T01:03:24;174.98;;;21.13;;
58665;SDS011;44436;52.872;6.520;2022-10-14T01:06:37;297.33;;;24.45;;
58665;SDS011;44436;52.872;6.520;2022-10-14T01:08:38;199.85;;;21.98;;
58665;SDS011;44436;52.872;6.520;2022-10-14T01:11:18;160.77;;;22.27;;
58665;SDS011;44436;52.872;6.520;2022-10-14T01:14:14;104.88;;;19.75;;
58665;SDS011;44436;52.872;6.520;2022-10-14T01:19:51;123.07;;;21.25;;
58665;SDS011;44436;52.872;6.520;2022-10-14T01:22:33;206.23;;;22.63;;
58665;SDS011;44436;52.872;6.520;2022-10-14T01:30:45;32.22;;;20.05;;
58665;SDS011;44436;52.872;6.520;2022-10-14T01:33:21;58.03;;;21.05;;
58665;SDS011;44436;52.872;6.520;2022-10-14T01:39:14;195.77;;;25.73;;
58665;SDS011;44436;52.872;6.520;2022-10-14T01:41:35;42.45;;;20.90;;
58665;SDS011;44436;52.872;6.520;2022-10-14T01:44:10;47.03;;;21.63;;
58665;SDS011;44436;52.872;6.520;2022-10-14T01:46:37;53.53;;;23.38;;
58665;SDS011;44436;52.872;6.520;2022-10-14T01:49:07;94.72;;;24.27;;
58665;SDS011;44436;52.872;6.520;2022-10-14T01:51:55;145.65;;;21.83;;
58665;SDS011;44436;52.872;6.520;2022-10-14T01:54:29;127.30;;;21.05;;
58665;SDS011;44436;52.872;6.520;2022-10-14T01:56:58;53.47;;;20.13;;
58665;SDS011;44436;52.872;6.520;2022-10-14T01:59:27;120.55;;;22.38;;
58665;SDS011;44436;52.872;6.520;2022-10-14T02:01:55;143.50;;;22.80;;
58665;SDS011;44436;52.872;6.520;2022-10-14T02:04:21;104.97;;;21.55;;
58665;SDS011;44436;52.872;6.520;2022-10-14T02:06:49;130.20;;;20.85;;
58665;SDS011;44436;52.872;6.520;2022-10-14T02:21:00;78.13;;;19.05;;
58665;SDS011;44436;52.872;6.520;2022-10-14T02:23:36;85.32;;;20.67;;
58665;SDS011;44436;52.872;6.520;2022-10-14T02:26:08;81.75;;;18.88;;
58665;SDS011;44436;52.872;6.520;2022-10-14T02:28:35;45.00;;;18.48;;
58665;SDS011;44436;52.872;6.520;2022-10-14T02:31:06;42.70;;;18.90;;
58665;SDS011;44436;52.872;6.520;2022-10-14T02:33:41;47.67;;;18.77;;
58665;SDS011;44436;52.872;6.520;2022-10-14T02:36:10;75.30;;;17.67;;
58665;SDS011;44436;52.872;6.520;2022-10-14T02:38:38;111.15;;;18.67;;
58665;SDS011;44436;52.872;6.520;2022-10-14T02:41:06;181.35;;;21.65;;
58665;SDS011;44436;52.872;6.520;2022-10-14T02:43:36;82.80;;;19.05;;
58665;SDS011;44436;52.872;6.520;2022-10-14T02:46:02;88.63;;;18.67;;
58665;SDS011;44436;52.872;6.520;2022-10-14T02:48:29;86.97;;;19.13;;
58665;SDS011;44436;52.872;6.520;2022-10-14T02:50:55;64.65;;;16.60;;
58665;SDS011;44436;52.872;6.520;2022-10-14T02:53:21;59.03;;;18.90;;
58665;SDS011;44436;52.872;6.520;2022-10-14T02:55:46;110.53;;;19.80;;
58665;SDS011;44436;52.872;6.520;2022-10-14T02:58:12;70.22;;;18.60;;
58665;SDS011;44436;52.872;6.520;2022-10-14T03:00:38;34.88;;;16.23;;
58665;SDS011;44436;52.872;6.520;2022-10-14T03:03:04;168.23;;;19.85;;
58665;SDS011;44436;52.872;6.520;2022-10-14T03:05:29;153.52;;;20.63;;
58665;SDS011;44436;52.872;6.520;2022-10-14T03:07:55;195.32;;;23.27;;
58665;SDS011;44436;52.872;6.520;2022-10-14T03:10:21;86.45;;;18.35;;
58665;SDS011;44436;52.872;6.520;2022-10-14T03:12:46;47.47;;;17.98;;
58665;SDS011;44436;52.872;6.520;2022-10-14T03:15:12;50.47;;;18.02;;
58665;SDS011;44436;52.872;6.520;2022-10-14T03:17:38;178.80;;;21.85;;
58665;SDS011;44436;52.872;6.520;2022-10-14T03:20:04;106.32;;;20.75;;
58665;SDS011;44436;52.872;6.520;2022-10-14T03:22:30;97.82;;;21.23;;
58665;SDS011;44436;52.872;6.520;2022-10-14T03:24:56;204.40;;;25.50;;
58665;SDS011;44436;52.872;6.520;2022-10-14T03:27:22;112.70;;;23.15;;
58665;SDS011;44436;52.872;6.520;2022-10-14T03:29:48;99.47;;;25.77;;
58665;SDS011;44436;52.872;6.520;2022-10-14T03:32:13;189.73;;;28.20;;
58665;SDS011;44436;52.872;6.520;2022-10-14T03:34:39;190.15;;;28.35;;
58665;SDS011;44436;52.872;6.520;2022-10-14T03:37:05;232.60;;;30.15;;
58665;SDS011;44436;52.872;6.520;2022-10-14T03:39:31;69.78;;;26.10;;
58665;SDS011;44436;52.872;6.520;2022-10-14T03:41:57;169.00;;;30.52;;
58665;SDS011;44436;52.872;6.520;2022-10-14T03:44:23;172.02;;;31.77;;
58665;SDS011;44436;52.872;6.520;2022-10-14T03:46:48;197.73;;;30.40;;
58665;SDS011;44436;52.872;6.520;2022-10-14T03:49:14;145.32;;;30.90;;
58665;SDS011;44436;52.872;6.520;2022-10-14T03:51:40;151.05;;;32.08;;
58665;SDS011;44436;52.872;6.520;2022-10-14T03:54:05;110.97;;;30.88;;
58665;SDS011;44436;52.872;6.520;2022-10-14T03:56:31;102.82;;;32.30;;
58665;SDS011;44436;52.872;6.520;2022-10-14T03:58:57;80.75;;;29.35;;
58665;SDS011;44436;52.872;6.520;2022-10-14T04:01:22;90.10;;;31.63;;
58665;SDS011;44436;52.872;6.520;2022-10-14T04:03:48;153.13;;;33.33;;
58665;SDS011;44436;52.872;6.520;2022-10-14T04:06:15;115.50;;;31.60;;
58665;SDS011;44436;52.872;6.520;2022-10-14T04:08:40;118.47;;;33.92;;
58665;SDS011;44436;52.872;6.520;2022-10-14T04:11:07;146.88;;;33.13;;
58665;SDS011;44436;52.872;6.520;2022-10-14T04:13:33;105.97;;;33.92;;
58665;SDS011;44436;52.872;6.520;2022-10-14T04:16:04;93.03;;;31.85;;
58665;SDS011;44436;52.872;6.520;2022-10-14T04:18:31;128.57;;;34.88;;
58665;SDS011;44436;52.872;6.520;2022-10-14T04:21:00;77.30;;;32.58;;
58665;SDS011;44436;52.872;6.520;2022-10-14T04:23:30;70.85;;;32.38;;
58665;SDS011;44436;52.872;6.520;2022-10-14T04:25:56;127.97;;;32.78;;
58665;SDS011;44436;52.872;6.520;2022-10-14T04:28:21;102.40;;;32.45;;
58665;SDS011;44436;52.872;6.520;2022-10-14T04:30:47;92.93;;;31.00;;
58665;SDS011;44436;52.872;6.520;2022-10-14T04:33:13;84.65;;;31.73;;
58665;SDS011;44436;52.872;6.520;2022-10-14T04:35:38;72.50;;;31.15;;
58665;SDS011;44436;52.872;6.520;2022-10-14T04:38:04;73.88;;;29.45;;
58665;SDS011;44436;52.872;6.520;2022-10-14T04:40:30;69.75;;;30.27;;
58665;SDS011;44436;52.872;6.520;2022-10-14T04:42:56;64.45;;;29.50;;
58665;SDS011;44436;52.872;6.520;2022-10-14T04:45:22;63.67;;;27.52;;
58665;SDS011;44436;52.872;6.520;2022-10-14T04:47:49;56.97;;;26.50;;
58665;SDS011;44436;52.872;6.520;2022-10-14T04:50:15;61.83;;;27.95;;
58665;SDS011;44436;52.872;6.520;2022-10-14T04:52:42;69.18;;;28.85;;
58665;SDS011;44436;52.872;6.520;2022-10-14T04:55:08;79.45;;;31.40;;
58665;SDS011;44436;52.872;6.520;2022-10-14T04:57:33;65.20;;;30.02;;
58665;SDS011;44436;52.872;6.520;2022-10-14T04:59:59;89.13;;;32.05;;
58665;SDS011;44436;52.872;6.520;2022-10-14T05:02:25;88.20;;;31.33;;
58665;SDS011;44436;52.872;6.520;2022-10-14T05:04:50;132.50;;;35.90;;
58665;SDS011;44436;52.872;6.520;2022-10-14T05:07:16;81.38;;;33.75;;
58665;SDS011;44436;52.872;6.520;2022-10-14T05:09:42;90.10;;;33.83;;
58665;SDS011;44436;52.872;6.520;2022-10-14T05:12:07;67.82;;;29.80;;
58665;SDS011;44436;52.872;6.520;2022-10-14T05:14:33;146.52;;;36.70;;
58665;SDS011;44436;52.872;6.520;2022-10-14T05:16:59;84.22;;;34.42;;
58665;SDS011;44436;52.872;6.520;2022-10-14T05:19:25;88.95;;;36.13;;
58665;SDS011;44436;52.872;6.520;2022-10-14T05:21:51;84.72;;;34.03;;
58665;SDS011;44436;52.872;6.520;2022-10-14T05:24:16;82.63;;;33.45;;
58665;SDS011;44436;52.872;6.520;2022-10-14T05:26:42;116.63;;;35.08;;
58665;SDS011;44436;52.872;6.520;2022-10-14T05:29:09;109.72;;;33.17;;
58665;SDS011;44436;52.872;6.520;2022-10-14T05:31:36;117.78;;;34.70;;
58665;SDS011;44436;52.872;6.520;2022-10-14T05:34:01;142.93;;;32.35;;
58665;SDS011;44436;52.872;6.520;2022-10-14T05:36:27;90.60;;;31.05;;
58665;SDS011;44436;52.872;6.520;2022-10-14T05:38:53;71.82;;;29.48;;
58665;SDS011;44436;52.872;6.520;2022-10-14T05:41:22;103.47;;;31.05;;
58665;SDS011;44436;52.872;6.520;2022-10-14T05:43:51;71.65;;;29.30;;
58665;SDS011;44436;52.872;6.520;2022-10-14T05:46:17;69.45;;;29.13;;
58665;SDS011;44436;52.872;6.520;2022-10-14T05:48:43;77.28;;;30.95;;
58665;SDS011;44436;52.872;6.520;2022-10-14T05:51:09;89.45;;;31.67;;
58665;SDS011;44436;52.872;6.520;2022-10-14T05:53:35;80.75;;;30.75;;
58665;SDS011;44436;52.872;6.520;2022-10-14T05:56:03;79.97;;;32.22;;
58665;SDS011;44436;52.872;6.520;2022-10-14T05:58:31;73.40;;;32.47;;
58665;SDS011;44436;52.872;6.520;2022-10-14T06:01:00;83.55;;;33.33;;
58665;SDS011;44436;52.872;6.520;2022-10-14T06:03:27;86.00;;;33.47;;
58665;SDS011;44436;52.872;6.520;2022-10-14T06:05:53;82.45;;;34.42;;
58665;SDS011;44436;52.872;6.520;2022-10-14T06:08:19;91.88;;;37.70;;
58665;SDS011;44436;52.872;6.520;2022-10-14T06:10:46;128.35;;;37.83;;
58665;SDS011;44436;52.872;6.520;2022-10-14T06:13:11;85.15;;;37.08;;
58665;SDS011;44436;52.872;6.520;2022-10-14T06:15:37;96.47;;;37.95;;
58665;SDS011;44436;52.872;6.520;2022-10-14T06:18:03;92.50;;;35.97;;
58665;SDS011;44436;52.872;6.520;2022-10-14T06:20:29;76.47;;;35.22;;
58665;SDS011;44436;52.872;6.520;2022-10-14T06:22:57;78.13;;;35.65;;
58665;SDS011;44436;52.872;6.520;2022-10-14T06:25:23;91.28;;;34.63;;
58665;SDS011;44436;52.872;6.520;2022-10-14T06:27:49;132.30;;;39.15;;
58665;SDS011;44436;52.872;6.520;2022-10-14T06:30:15;121.75;;;39.65;;
58665;SDS011;44436;52.872;6.520;2022-10-14T06:32:41;81.43;;;37.53;;
58665;SDS011;44436;52.872;6.520;2022-10-14T06:35:07;88.03;;;38.95;;
58665;SDS011;44436;52.872;6.520;2022-10-14T06:37:33;77.43;;;37.22;;
58665;SDS011;44436;52.872;6.520;2022-10-14T06:39:59;84.50;;;40.40;;
58665;SDS011;44436;52.872;6.520;2022-10-14T06:42:24;78.38;;;38.75;;
58665;SDS011;44436;52.872;6.520;2022-10-14T06:44:50;84.78;;;39.92;;
58665;SDS011;44436;52.872;6.520;2022-10-14T06:47:15;98.03;;;43.70;;
58665;SDS011;44436;52.872;6.520;2022-10-14T06:49:41;88.38;;;40.97;;
58665;SDS011;44436;52.872;6.520;2022-10-14T06:52:07;80.80;;;40.95;;
58665;SDS011;44436;52.872;6.520;2022-10-14T06:54:33;80.05;;;39.30;;
58665;SDS011;44436;52.872;6.520;2022-10-14T06:56:58;80.63;;;39.60;;
58665;SDS011;44436;52.872;6.520;2022-10-14T06:59:24;79.45;;;39.70;;
58665;SDS011;44436;52.872;6.520;2022-10-14T07:01:52;79.32;;;39.75;;
58665;SDS011;44436;52.872;6.520;2022-10-14T07:04:18;82.65;;;39.10;;
58665;SDS011;44436;52.872;6.520;2022-10-14T07:06:43;82.18;;;40.45;;
58665;SDS011;44436;52.872;6.520;2022-10-14T07:09:09;77.68;;;38.30;;
58665;SDS011;44436;52.872;6.520;2022-10-14T07:11:35;76.22;;;39.60;;
58665;SDS011;44436;52.872;6.520;2022-10-14T07:14:00;73.88;;;36.47;;
58665;SDS011;44436;52.872;6.520;2022-10-14T07:16:26;61.85;;;33.85;;
58665;SDS011;44436;52.872;6.520;2022-10-14T07:18:52;67.35;;;34.50;;
58665;SDS011;44436;52.872;6.520;2022-10-14T07:21:18;57.35;;;32.42;;
58665;SDS011;44436;52.872;6.520;2022-10-14T07:23:44;59.13;;;32.80;;
58665;SDS011;44436;52.872;6.520;2022-10-14T07:26:09;53.25;;;31.27;;
58665;SDS011;44436;52.872;6.520;2022-10-14T07:28:35;57.35;;;31.33;;
58665;SDS011;44436;52.872;6.520;2022-10-14T07:31:02;53.78;;;30.75;;
58665;SDS011;44436;52.872;6.520;2022-10-14T07:33:30;49.90;;;29.17;;
58665;SDS011;44436;52.872;6.520;2022-10-14T07:35:59;50.35;;;29.33;;
58665;SDS011;44436;52.872;6.520;2022-10-14T07:38:28;55.25;;;32.38;;
58665;SDS011;44436;52.872;6.520;2022-10-14T07:40:55;55.50;;;32.13;;
58665;SDS011;44436;52.872;6.520;2022-10-14T07:43:29;53.85;;;31.88;;
58665;SDS011;44436;52.872;6.520;2022-10-14T07:45:55;53.35;;;30.52;;
58665;SDS011;44436;52.872;6.520;2022-10-14T07:48:27;55.53;;;32.20;;
58665;SDS011;44436;52.872;6.520;2022-10-14T07:50:54;61.88;;;34.03;;
58665;SDS011;44436;52.872;6.520;2022-10-14T07:53:20;49.95;;;32.25;;
58665;SDS011;44436;52.872;6.520;2022-10-14T07:55:46;55.20;;;32.75;;
58665;SDS011;44436;52.872;6.520;2022-10-14T07:58:22;57.58;;;33.63;;
58665;SDS011;44436;52.872;6.520;2022-10-14T08:00:50;61.20;;;34.40;;
58665;SDS011;44436;52.872;6.520;2022-10-14T08:03:17;56.08;;;32.97;;
58665;SDS011;44436;52.872;6.520;2022-10-14T08:05:44;59.72;;;32.38;;
58665;SDS011;44436;52.872;6.520;2022-10-14T08:08:11;55.33;;;33.25;;
58665;SDS011;44436;52.872;6.520;2022-10-14T08:10:38;63.35;;;33.92;;
58665;SDS011;44436;52.872;6.520;2022-10-14T08:13:05;56.30;;;32.60;;
58665;SDS011;44436;52.872;6.520;2022-10-14T08:15:34;55.78;;;33.53;;
58665;SDS011;44436;52.872;6.520;2022-10-14T08:18:08;57.72;;;33.92;;
58665;SDS011;44436;52.872;6.520;2022-10-14T08:20:36;64.55;;;35.63;;
58665;SDS011;44436;52.872;6.520;2022-10-14T08:23:02;63.13;;;36.20;;
58665;SDS011;44436;52.872;6.520;2022-10-14T08:25:27;59.17;;;33.75;;
58665;SDS011;44436;52.872;6.520;2022-10-14T08:27:53;55.47;;;33.38;;
58665;SDS011;44436;52.872;6.520;2022-10-14T08:30:21;68.28;;;35.60;;
58665;SDS011;44436;52.872;6.520;2022-10-14T08:32:47;66.05;;;37.03;;
58665;SDS011;44436;52.872;6.520;2022-10-14T08:35:13;61.53;;;35.97;;
58665;SDS011;44436;52.872;6.520;2022-10-14T08:37:39;63.28;;;35.38;;
58665;SDS011;44436;52.872;6.520;2022-10-14T08:40:05;63.33;;;35.83;;
58665;SDS011;44436;52.872;6.520;2022-10-14T08:42:42;58.05;;;33.00;;
58665;SDS011;44436;52.872;6.520;2022-10-14T08:45:32;63.28;;;35.22;;
58665;SDS011;44436;52.872;6.520;2022-10-14T08:48:02;71.63;;;37.70;;
58665;SDS011;44436;52.872;6.520;2022-10-14T08:53:21;69.28;;;37.95;;
58665;SDS011;44436;52.872;6.520;2022-10-14T08:55:56;58.67;;;34.58;;
58665;SDS011;44436;52.872;6.520;2022-10-14T08:58:30;64.05;;;37.35;;
58665;SDS011;44436;52.872;6.520;2022-10-14T09:01:23;67.03;;;36.78;;
58665;SDS011;44436;52.872;6.520;2022-10-14T09:06:35;72.15;;;38.25;;
58665;SDS011;44436;52.872;6.520;2022-10-14T09:09:13;74.03;;;37.70;;
58665;SDS011;44436;52.872;6.520;2022-10-14T09:11:45;71.68;;;39.60;;
58665;SDS011;44436;52.872;6.520;2022-10-14T09:14:26;74.10;;;38.17;;
58665;SDS011;44436;52.872;6.520;2022-10-14T09:19:36;71.63;;;37.88;;
58665;SDS011;44436;52.872;6.520;2022-10-14T09:22:11;71.28;;;36.88;;
58665;SDS011;44436;52.872;6.520;2022-10-14T09:24:38;63.08;;;34.70;;
58665;SDS011;44436;52.872;6.520;2022-10-14T09:27:11;72.43;;;37.75;;
58665;SDS011;44436;52.872;6.520;2022-10-14T09:29:46;65.13;;;33.17;;
58665;SDS011;44436;52.872;6.520;2022-10-14T09:35:11;66.50;;;34.63;;
58665;SDS011;44436;52.872;6.520;2022-10-14T09:37:56;69.78;;;35.55;;
58665;SDS011;44436;52.872;6.520;2022-10-14T09:42:59;62.97;;;33.42;;
58665;SDS011;44436;52.872;6.520;2022-10-14T09:45:40;69.47;;;33.17;;
58665;SDS011;44436;52.872;6.520;2022-10-14T09:51:02;64.55;;;32.40;;
58665;SDS011;44436;52.872;6.520;2022-10-14T09:53:38;61.08;;;31.45;;
58665;SDS011;44436;52.872;6.520;2022-10-14T09:56:09;67.28;;;35.45;;
58665;SDS011;44436;52.872;6.520;2022-10-14T09:58:49;66.35;;;33.45;;
58665;SDS011;44436;52.872;6.520;2022-10-14T10:01:47;65.28;;;32.90;;
58665;SDS011;44436;52.872;6.520;2022-10-14T10:07:01;75.38;;;35.03;;
58665;SDS011;44436;52.872;6.520;2022-10-14T10:09:30;69.10;;;34.33;;
58665;SDS011;44436;52.872;6.520;2022-10-14T10:11:56;66.07;;;31.63;;
58665;SDS011;44436;52.872;6.520;2022-10-14T10:14:23;67.03;;;34.45;;
58665;SDS011;44436;52.872;6.520;2022-10-14T10:17:09;66.30;;;32.30;;
58665;SDS011;44436;52.872;6.520;2022-10-14T10:20:04;60.00;;;31.30;;
58665;SDS011;44436;52.872;6.520;2022-10-14T10:22:55;60.25;;;29.90;;
58665;SDS011;44436;52.872;6.520;2022-10-14T10:25:26;71.15;;;33.50;;
58665;SDS011;44436;52.872;6.520;2022-10-14T10:27:53;63.20;;;31.52;;
58665;SDS011;44436;52.872;6.520;2022-10-14T10:30:34;55.65;;;28.70;;
58665;SDS011;44436;52.872;6.520;2022-10-14T10:44:04;41.30;;;21.38;;
58665;SDS011;44436;52.872;6.520;2022-10-14T10:49:58;42.00;;;21.77;;
58665;SDS011;44436;52.872;6.520;2022-10-14T10:57:48;41.05;;;20.70;;
58665;SDS011;44436;52.872;6.520;2022-10-14T11:00:26;38.88;;;19.92;;
58665;SDS011;44436;52.872;6.520;2022-10-14T11:26:01;43.33;;;22.88;;
58665;SDS011;44436;52.872;6.520;2022-10-14T11:28:40;40.65;;;22.83;;
58665;SDS011;44436;52.872;6.520;2022-10-14T11:31:52;38.75;;;22.25;;
58665;SDS011;44436;52.872;6.520;2022-10-14T11:37:28;46.97;;;25.35;;
58665;SDS011;44436;52.872;6.520;2022-10-14T11:40:10;46.92;;;25.88;;
58665;SDS011;44436;52.872;6.520;2022-10-14T11:43:11;49.30;;;26.67;;
58665;SDS011;44436;52.872;6.520;2022-10-14T11:51:15;54.35;;;31.60;;
58665;SDS011;44436;52.872;6.520;2022-10-14T11:54:15;63.63;;;32.88;;
58665;SDS011;44436;52.872;6.520;2022-10-14T11:57:10;62.38;;;33.88;;
58665;SDS011;44436;52.872;6.520;2022-10-14T11:59:52;58.08;;;32.10;;
58665;SDS011;44436;52.872;6.520;2022-10-14T12:07:45;80.43;;;40.63;;
58665;SDS011;44436;52.872;6.520;2022-10-14T12:10:20;85.75;;;41.47;;
58665;SDS011;44436;52.872;6.520;2022-10-14T12:12:52;77.30;;;40.00;;
58665;SDS011;44436;52.872;6.520;2022-10-14T12:15:19;76.70;;;39.17;;
58665;SDS011;44436;52.872;6.520;2022-10-14T12:23:22;81.55;;;41.55;;
58665;SDS011;44436;52.872;6.520;2022-10-14T12:25:59;72.78;;;40.15;;
58665;SDS011;44436;52.872;6.520;2022-10-14T12:28:34;90.25;;;44.03;;
58665;SDS011;44436;52.872;6.520;2022-10-14T12:36:44;83.05;;;40.17;;
58665;SDS011;44436;52.872;6.520;2022-10-14T12:44:48;71.85;;;38.30;;
58665;SDS011;44436;52.872;6.520;2022-10-14T12:49:54;58.13;;;34.63;;
58665;SDS011;44436;52.872;6.520;2022-10-14T12:52:27;61.25;;;33.75;;
58665;SDS011;44436;52.872;6.520;2022-10-14T13:00:02;51.20;;;31.60;;
58665;SDS011;44436;52.872;6.520;2022-10-14T13:02:46;46.80;;;28.83;;
58665;SDS011;44436;52.872;6.520;2022-10-14T13:05:40;41.10;;;26.58;;
58665;SDS011;44436;52.872;6.520;2022-10-14T13:11:09;34.13;;;23.52;;
58665;SDS011;44436;52.872;6.520;2022-10-14T13:21:30;24.10;;;19.00;;
58665;SDS011;44436;52.872;6.520;2022-10-14T13:31:59;17.83;;;15.93;;
58665;SDS011;44436;52.872;6.520;2022-10-14T13:37:52;18.50;;;16.50;;
58665;SDS011;44436;52.872;6.520;2022-10-14T13:42:59;18.35;;;16.42;;
58665;SDS011;44436;52.872;6.520;2022-10-14T13:45:38;19.25;;;16.42;;
58665;SDS011;44436;52.872;6.520;2022-10-14T13:48:14;18.63;;;16.27;;
58665;SDS011;44436;52.872;6.520;2022-10-14T13:50:45;17.83;;;15.73;;
58665;SDS011;44436;52.872;6.520;2022-10-14T13:53:19;17.30;;;15.60;;
58665;SDS011;44436;52.872;6.520;2022-10-14T13:55:47;17.52;;;15.63;;
58665;SDS011;44436;52.872;6.520;2022-10-14T13:58:17;16.95;;;15.25;;
58665;SDS011;44436;52.872;6.520;2022-10-14T14:03:25;17.45;;;15.63;;
58665;SDS011;44436;52.872;6.520;2022-10-14T14:06:13;20.63;;;15.93;;
58665;SDS011;44436;52.872;6.520;2022-10-14T14:11:15;17.92;;;16.13;;
58665;SDS011;44436;52.872;6.520;2022-10-14T14:13:47;19.30;;;16.85;;
58665;SDS011;44436;52.872;6.520;2022-10-14T14:16:17;17.88;;;16.02;;
58665;SDS011;44436;52.872;6.520;2022-10-14T14:18:47;16.85;;;15.18;;
58665;SDS011;44436;52.872;6.520;2022-10-14T14:21:14;17.85;;;15.50;;
58665;SDS011;44436;52.872;6.520;2022-10-14T14:23:52;16.25;;;14.55;;
58665;SDS011;44436;52.872;6.520;2022-10-14T14:26:20;15.93;;;14.35;;
58665;SDS011;44436;52.872;6.520;2022-10-14T14:28:56;16.83;;;15.15;;
58665;SDS011;44436;52.872;6.520;2022-10-14T14:31:22;16.38;;;14.77;;
58665;SDS011;44436;52.872;6.520;2022-10-14T14:33:51;17.92;;;15.98;;
58665;SDS011;44436;52.872;6.520;2022-10-14T14:36:21;17.23;;;15.43;;
58665;SDS011;44436;52.872;6.520;2022-10-14T14:38:53;16.02;;;14.45;;
58665;SDS011;44436;52.872;6.520;2022-10-14T14:41:22;15.75;;;14.27;;
58665;SDS011;44436;52.872;6.520;2022-10-14T14:43:50;15.85;;;14.25;;
58665;SDS011;44436;52.872;6.520;2022-10-14T14:46:19;17.35;;;15.45;;
58665;SDS011;44436;52.872;6.520;2022-10-14T14:48:50;17.05;;;15.25;;
58665;SDS011;44436;52.872;6.520;2022-10-14T14:51:18;17.92;;;15.98;;
58665;SDS011;44436;52.872;6.520;2022-10-14T14:53:49;17.48;;;15.63;;
58665;SDS011;44436;52.872;6.520;2022-10-14T14:56:18;15.85;;;14.35;;
58665;SDS011;44436;52.872;6.520;2022-10-14T14:58:51;16.50;;;15.00;;
58665;SDS011;44436;52.872;6.520;2022-10-14T15:01:27;18.65;;;14.48;;
58665;SDS011;44436;52.872;6.520;2022-10-14T15:06:38;16.83;;;15.13;;
58665;SDS011;44436;52.872;6.520;2022-10-14T15:09:13;17.40;;;15.68;;
58665;SDS011;44436;52.872;6.520;2022-10-14T15:11:47;15.43;;;13.93;;
58665;SDS011;44436;52.872;6.520;2022-10-14T15:17:20;14.80;;;13.40;;
58665;SDS011;44436;52.872;6.520;2022-10-14T15:19:51;15.60;;;14.02;;
58665;SDS011;44436;52.872;6.520;2022-10-14T15:24:58;15.68;;;14.05;;
58665;SDS011;44436;52.872;6.520;2022-10-14T15:32:45;16.05;;;14.43;;
58665;SDS011;44436;52.872;6.520;2022-10-14T15:35:12;15.18;;;13.88;;
58665;SDS011;44436;52.872;6.520;2022-10-14T15:37:39;16.50;;;14.93;;
58665;SDS011;44436;52.872;6.520;2022-10-14T15:40:48;18.10;;;15.77;;
58665;SDS011;44436;52.872;6.520;2022-10-14T15:42:55;16.70;;;15.00;;
58665;SDS011;44436;52.872;6.520;2022-10-14T15:45:22;15.25;;;13.95;;
58665;SDS011;44436;52.872;6.520;2022-10-14T15:47:52;15.18;;;13.77;;
58665;SDS011;44436;52.872;6.520;2022-10-14T15:50:22;15.23;;;13.73;;
58665;SDS011;44436;52.872;6.520;2022-10-14T15:52:49;14.55;;;13.23;;
58665;SDS011;44436;52.872;6.520;2022-10-14T15:55:24;16.00;;;14.30;;
58665;SDS011;44436;52.872;6.520;2022-10-14T15:57:51;16.65;;;14.52;;
58665;SDS011;44436;52.872;6.520;2022-10-14T16:00:21;16.40;;;14.70;;
58665;SDS011;44436;52.872;6.520;2022-10-14T16:02:49;15.13;;;13.73;;
58665;SDS011;44436;52.872;6.520;2022-10-14T16:05:18;13.98;;;12.55;;
58665;SDS011;44436;52.872;6.520;2022-10-14T16:07:45;14.43;;;13.05;;
58665;SDS011;44436;52.872;6.520;2022-10-14T16:10:13;14.27;;;13.02;;
58665;SDS011;44436;52.872;6.520;2022-10-14T16:12:40;15.63;;;14.02;;
58665;SDS011;44436;52.872;6.520;2022-10-14T16:15:13;14.73;;;13.32;;
58665;SDS011;44436;52.872;6.520;2022-10-14T16:18:08;13.77;;;12.52;;
58665;SDS011;44436;52.872;6.520;2022-10-14T16:20:34;13.65;;;12.38;;
58665;SDS011;44436;52.872;6.520;2022-10-14T16:22:59;14.38;;;12.98;;
58665;SDS011;44436;52.872;6.520;2022-10-14T16:25:37;15.15;;;13.73;;
58665;SDS011;44436;52.872;6.520;2022-10-14T16:28:09;15.55;;;14.02;;
58665;SDS011;44436;52.872;6.520;2022-10-14T16:30:36;15.63;;;14.18;;
58665;SDS011;44436;52.872;6.520;2022-10-14T16:33:04;15.23;;;13.75;;
58665;SDS011;44436;52.872;6.520;2022-10-14T16:35:30;14.90;;;13.50;;
58665;SDS011;44436;52.872;6.520;2022-10-14T16:37:56;14.60;;;13.35;;
58665;SDS011;44436;52.872;6.520;2022-10-14T16:40:22;14.35;;;13.05;;
58665;SDS011;44436;52.872;6.520;2022-10-14T16:42:49;14.85;;;13.45;;
58665;SDS011;44436;52.872;6.520;2022-10-14T16:45:15;13.13;;;11.57;;
58665;SDS011;44436;52.872;6.520;2022-10-14T16:47:41;10.70;;;9.80;;
58665;SDS011;44436;52.872;6.520;2022-10-14T16:50:08;9.77;;;8.88;;
58665;SDS011;44436;52.872;6.520;2022-10-14T16:52:35;11.15;;;10.00;;
58665;SDS011;44436;52.872;6.520;2022-10-14T16:55:21;11.50;;;10.40;;
58665;SDS011;44436;52.872;6.520;2022-10-14T16:57:47;10.98;;;10.00;;
58665;SDS011;44436;52.872;6.520;2022-10-14T17:00:13;11.10;;;10.02;;
58665;SDS011;44436;52.872;6.520;2022-10-14T17:02:40;10.68;;;9.68;;
58665;SDS011;44436;52.872;6.520;2022-10-14T17:05:06;10.70;;;9.80;;
58665;SDS011;44436;52.872;6.520;2022-10-14T17:07:33;13.90;;;12.50;;
58665;SDS011;44436;52.872;6.520;2022-10-14T17:09:59;14.70;;;13.35;;
58665;SDS011;44436;52.872;6.520;2022-10-14T17:12:25;13.90;;;12.45;;
58665;SDS011;44436;52.872;6.520;2022-10-14T17:14:51;14.38;;;12.93;;
58665;SDS011;44436;52.872;6.520;2022-10-14T17:17:17;13.15;;;11.85;;
58665;SDS011;44436;52.872;6.520;2022-10-14T17:19:42;14.25;;;12.35;;
58665;SDS011;44436;52.872;6.520;2022-10-14T17:22:10;12.60;;;11.30;;
58665;SDS011;44436;52.872;6.520;2022-10-14T17:24:36;12.75;;;11.45;;